Hagood, South Carolina
Current Conditions -  °F | °C
As of 12:58 AM on Tuesday 21 Oct 2014 (Local Time) from KSSC Reporting Station
Clear Clear  
Wind Chill: 54°   Ceiling: Unl
Heat Index: 54°   Visibility: 10mi
Dew Point: 52°   Wind: 2mph
Humidity: 93%   Direction: 350°N
Pressure: 29.97"   Gusts: NA
Location:  34.1106°N, 80.4967°W
Report Text: KSSC 210458Z AUTO 35002KT 10SM CLR 12/11 A2997 RMK AO2 SLP149 T01210110 402440065 $
Loading
Personal Weather Stations






























Interactive Weather Map
Tropical Storm Tracking
New forecast layout! Learn more

10-Day Weather Forecast

Advertisements
Track Severe Weather on mobile